sensor_id;sensor_type;location;lat;lon;timestamp;temperature;humidity
20866;DHT22;10593;48.398;10.698;2022-10-17T00:01:22;17.80;56.00
20866;DHT22;10593;48.398;10.698;2022-10-17T00:03:47;17.70;55.50
20866;DHT22;10593;48.398;10.698;2022-10-17T00:06:14;17.70;55.40
20866;DHT22;10593;48.398;10.698;2022-10-17T00:08:42;17.60;55.30
20866;DHT22;10593;48.398;10.698;2022-10-17T00:11:14;17.60;55.40
20866;DHT22;10593;48.398;10.698;2022-10-17T00:13:43;17.60;55.50
20866;DHT22;10593;48.398;10.698;2022-10-17T00:16:10;17.60;55.60
20866;DHT22;10593;48.398;10.698;2022-10-17T00:18:36;17.60;55.80
20866;DHT22;10593;48.398;10.698;2022-10-17T00:21:02;17.50;55.90
20866;DHT22;10593;48.398;10.698;2022-10-17T00:23:28;17.50;55.90
20866;DHT22;10593;48.398;10.698;2022-10-17T00:25:59;17.50;55.90
20866;DHT22;10593;48.398;10.698;2022-10-17T00:28:27;17.50;55.90
20866;DHT22;10593;48.398;10.698;2022-10-17T00:30:57;17.40;55.60
20866;DHT22;10593;48.398;10.698;2022-10-17T00:33:25;17.40;55.40
20866;DHT22;10593;48.398;10.698;2022-10-17T00:36:02;17.40;55.50
20866;DHT22;10593;48.398;10.698;2022-10-17T00:38:28;17.40;55.40
20866;DHT22;10593;48.398;10.698;2022-10-17T00:40:54;17.40;55.40
20866;DHT22;10593;48.398;10.698;2022-10-17T00:43:21;17.30;55.40
20866;DHT22;10593;48.398;10.698;2022-10-17T00:45:47;17.30;55.50
20866;DHT22;10593;48.398;10.698;2022-10-17T00:48:14;17.30;55.70
20866;DHT22;10593;48.398;10.698;2022-10-17T00:50:42;17.30;55.80
20866;DHT22;10593;48.398;10.698;2022-10-17T00:53:11;17.30;55.80
20866;DHT22;10593;48.398;10.698;2022-10-17T00:55:44;17.20;55.90
20866;DHT22;10593;48.398;10.698;2022-10-17T00:58:15;17.20;55.90
20866;DHT22;10593;48.398;10.698;2022-10-17T01:00:43;17.20;55.80
20866;DHT22;10593;48.398;10.698;2022-10-17T01:03:10;17.20;55.80
20866;DHT22;10593;48.398;10.698;2022-10-17T01:05:37;17.10;55.70
20866;DHT22;10593;48.398;10.698;2022-10-17T01:08:04;17.20;55.80
20866;DHT22;10593;48.398;10.698;2022-10-17T01:10:39;17.10;55.70
20866;DHT22;10593;48.398;10.698;2022-10-17T01:13:25;17.10;55.60
20866;DHT22;10593;48.398;10.698;2022-10-17T01:16:13;17.10;55.60
20866;DHT22;10593;48.398;10.698;2022-10-17T01:21:52;17.00;55.60
20866;DHT22;10593;48.398;10.698;2022-10-17T01:32:49;17.00;55.50
20866;DHT22;10593;48.398;10.698;2022-10-17T01:38:02;16.90;55.60
20866;DHT22;10593;48.398;10.698;2022-10-17T01:41:06;16.90;55.80
20866;DHT22;10593;48.398;10.698;2022-10-17T01:43:50;16.90;56.00
20866;DHT22;10593;48.398;10.698;2022-10-17T01:46:30;16.90;55.90
20866;DHT22;10593;48.398;10.698;2022-10-17T01:49:00;16.90;56.00
20866;DHT22;10593;48.398;10.698;2022-10-17T01:51:38;16.90;55.90
20866;DHT22;10593;48.398;10.698;2022-10-17T01:54:17;16.80;55.80
20866;DHT22;10593;48.398;10.698;2022-10-17T01:56:52;16.80;55.70
20866;DHT22;10593;48.398;10.698;2022-10-17T01:59:29;16.80;55.70
20866;DHT22;10593;48.398;10.698;2022-10-17T02:02:01;16.70;55.60
20866;DHT22;10593;48.398;10.698;2022-10-17T02:04:27;16.70;55.60
20866;DHT22;10593;48.398;10.698;2022-10-17T02:06:53;16.70;55.70
20866;DHT22;10593;48.398;10.698;2022-10-17T02:09:24;16.70;55.70
20866;DHT22;10593;48.398;10.698;2022-10-17T02:21:14;16.70;56.20
20866;DHT22;10593;48.398;10.698;2022-10-17T02:24:19;16.60;55.90
20866;DHT22;10593;48.398;10.698;2022-10-17T02:27:14;16.60;55.70
20866;DHT22;10593;48.398;10.698;2022-10-17T02:30:02;16.60;55.30
20866;DHT22;10593;48.398;10.698;2022-10-17T02:32:51;16.60;55.10
20866;DHT22;10593;48.398;10.698;2022-10-17T02:35:37;16.60;54.90
20866;DHT22;10593;48.398;10.698;2022-10-17T02:38:07;16.60;54.90
20866;DHT22;10593;48.398;10.698;2022-10-17T02:40:36;16.50;54.80
20866;DHT22;10593;48.398;10.698;2022-10-17T02:43:03;16.40;54.80
20866;DHT22;10593;48.398;10.698;2022-10-17T02:45:30;16.40;54.80
20866;DHT22;10593;48.398;10.698;2022-10-17T02:48:24;16.40;54.80
20866;DHT22;10593;48.398;10.698;2022-10-17T02:54:26;16.30;54.70
20866;DHT22;10593;48.398;10.698;2022-10-17T02:57:01;16.30;54.70
20866;DHT22;10593;48.398;10.698;2022-10-17T02:59:34;16.30;54.80
20866;DHT22;10593;48.398;10.698;2022-10-17T03:02:03;16.20;54.70
20866;DHT22;10593;48.398;10.698;2022-10-17T03:04:30;16.20;54.80
20866;DHT22;10593;48.398;10.698;2022-10-17T03:06:55;16.20;55.00
20866;DHT22;10593;48.398;10.698;2022-10-17T03:09:21;16.20;55.10
20866;DHT22;10593;48.398;10.698;2022-10-17T03:11:47;16.10;55.10
20866;DHT22;10593;48.398;10.698;2022-10-17T03:14:12;16.10;55.20
20866;DHT22;10593;48.398;10.698;2022-10-17T03:16:38;16.10;55.30
20866;DHT22;10593;48.398;10.698;2022-10-17T03:19:04;16.10;55.40
20866;DHT22;10593;48.398;10.698;2022-10-17T03:21:29;16.10;55.30
20866;DHT22;10593;48.398;10.698;2022-10-17T03:23:55;16.10;55.30
20866;DHT22;10593;48.398;10.698;2022-10-17T03:26:21;16.10;55.20
20866;DHT22;10593;48.398;10.698;2022-10-17T03:28:46;16.10;55.10
20866;DHT22;10593;48.398;10.698;2022-10-17T03:31:14;16.10;54.90
20866;DHT22;10593;48.398;10.698;2022-10-17T03:33:41;16.10;54.80
20866;DHT22;10593;48.398;10.698;2022-10-17T03:36:09;16.00;54.60
20866;DHT22;10593;48.398;10.698;2022-10-17T03:38:37;16.00;54.60
20866;DHT22;10593;48.398;10.698;2022-10-17T03:41:04;16.00;54.60
20866;DHT22;10593;48.398;10.698;2022-10-17T03:43:30;16.00;54.60
20866;DHT22;10593;48.398;10.698;2022-10-17T03:45:57;15.90;54.50
20866;DHT22;10593;48.398;10.698;2022-10-17T03:48:23;16.00;54.60
20866;DHT22;10593;48.398;10.698;2022-10-17T03:50:50;15.90;54.50
20866;DHT22;10593;48.398;10.698;2022-10-17T03:53:15;15.90;54.50
20866;DHT22;10593;48.398;10.698;2022-10-17T03:55:41;15.80;54.40
20866;DHT22;10593;48.398;10.698;2022-10-17T03:58:07;15.80;54.40
20866;DHT22;10593;48.398;10.698;2022-10-17T04:00:35;15.80;54.40
20866;DHT22;10593;48.398;10.698;2022-10-17T04:03:01;15.80;54.50
20866;DHT22;10593;48.398;10.698;2022-10-17T04:05:27;15.80;54.70
20866;DHT22;10593;48.398;10.698;2022-10-17T04:07:52;15.80;54.90
20866;DHT22;10593;48.398;10.698;2022-10-17T04:10:18;15.70;54.70
20866;DHT22;10593;48.398;10.698;2022-10-17T04:12:44;15.70;54.70
20866;DHT22;10593;48.398;10.698;2022-10-17T04:15:10;15.70;54.80
20866;DHT22;10593;48.398;10.698;2022-10-17T04:17:36;15.70;54.90
20866;DHT22;10593;48.398;10.698;2022-10-17T04:20:01;15.70;54.90
20866;DHT22;10593;48.398;10.698;2022-10-17T04:22:27;15.70;54.90
20866;DHT22;10593;48.398;10.698;2022-10-17T04:24:53;15.70;54.90
20866;DHT22;10593;48.398;10.698;2022-10-17T04:27:18;15.70;54.90
20866;DHT22;10593;48.398;10.698;2022-10-17T04:29:44;15.60;55.00
20866;DHT22;10593;48.398;10.698;2022-10-17T04:32:10;15.60;55.00
20866;DHT22;10593;48.398;10.698;2022-10-17T04:34:35;15.60;54.90
20866;DHT22;10593;48.398;10.698;2022-10-17T04:37:01;15.60;54.80
20866;DHT22;10593;48.398;10.698;2022-10-17T04:39:27;15.60;54.70
20866;DHT22;10593;48.398;10.698;2022-10-17T04:41:53;15.60;54.60
20866;DHT22;10593;48.398;10.698;2022-10-17T04:44:21;15.50;54.20
20866;DHT22;10593;48.398;10.698;2022-10-17T04:46:47;15.50;54.10
20866;DHT22;10593;48.398;10.698;2022-10-17T04:49:13;15.50;54.00
20866;DHT22;10593;48.398;10.698;2022-10-17T04:51:38;15.50;54.00
20866;DHT22;10593;48.398;10.698;2022-10-17T04:54:04;15.40;53.90
20866;DHT22;10593;48.398;10.698;2022-10-17T04:56:30;15.40;54.00
20866;DHT22;10593;48.398;10.698;2022-10-17T04:58:57;15.40;54.10
20866;DHT22;10593;48.398;10.698;2022-10-17T05:01:24;15.40;54.10
20866;DHT22;10593;48.398;10.698;2022-10-17T05:03:51;15.30;54.20
20866;DHT22;10593;48.398;10.698;2022-10-17T05:06:19;15.30;54.20
20866;DHT22;10593;48.398;10.698;2022-10-17T05:08:47;15.20;54.20
20866;DHT22;10593;48.398;10.698;2022-10-17T05:11:21;15.30;54.40
20866;DHT22;10593;48.398;10.698;2022-10-17T05:13:53;15.20;54.40
20866;DHT22;10593;48.398;10.698;2022-10-17T05:16:27;15.20;54.40
20866;DHT22;10593;48.398;10.698;2022-10-17T05:18:55;15.20;54.60
20866;DHT22;10593;48.398;10.698;2022-10-17T05:21:23;15.10;54.50
20866;DHT22;10593;48.398;10.698;2022-10-17T05:23:51;15.10;54.70
20866;DHT22;10593;48.398;10.698;2022-10-17T05:26:17;15.10;54.90
20866;DHT22;10593;48.398;10.698;2022-10-17T05:28:43;15.10;55.50
20866;DHT22;10593;48.398;10.698;2022-10-17T05:31:09;15.10;55.00
20866;DHT22;10593;48.398;10.698;2022-10-17T05:33:37;15.10;55.00
20866;DHT22;10593;48.398;10.698;2022-10-17T05:36:04;15.10;55.10
20866;DHT22;10593;48.398;10.698;2022-10-17T05:38:30;15.10;55.10
20866;DHT22;10593;48.398;10.698;2022-10-17T05:41:00;15.10;55.20
20866;DHT22;10593;48.398;10.698;2022-10-17T05:43:28;15.10;55.30
20866;DHT22;10593;48.398;10.698;2022-10-17T05:45:55;15.00;55.40
20866;DHT22;10593;48.398;10.698;2022-10-17T05:48:21;15.00;55.40
20866;DHT22;10593;48.398;10.698;2022-10-17T05:50:48;15.10;55.50
20866;DHT22;10593;48.398;10.698;2022-10-17T05:53:15;15.10;55.50
20866;DHT22;10593;48.398;10.698;2022-10-17T05:55:41;15.10;55.50
20866;DHT22;10593;48.398;10.698;2022-10-17T05:58:07;15.10;55.50
20866;DHT22;10593;48.398;10.698;2022-10-17T06:00:33;15.10;55.50
20866;DHT22;10593;48.398;10.698;2022-10-17T06:02:58;15.10;55.50
20866;DHT22;10593;48.398;10.698;2022-10-17T06:05:24;15.10;55.30
20866;DHT22;10593;48.398;10.698;2022-10-17T06:07:49;15.10;55.10
20866;DHT22;10593;48.398;10.698;2022-10-17T06:10:17;15.10;55.10
20866;DHT22;10593;48.398;10.698;2022-10-17T06:12:44;15.10;55.10
20866;DHT22;10593;48.398;10.698;2022-10-17T06:15:11;15.10;55.00
20866;DHT22;10593;48.398;10.698;2022-10-17T06:17:37;15.10;55.00
20866;DHT22;10593;48.398;10.698;2022-10-17T06:20:03;15.00;54.90
20866;DHT22;10593;48.398;10.698;2022-10-17T06:22:29;15.10;55.20
20866;DHT22;10593;48.398;10.698;2022-10-17T06:24:55;15.20;55.40
20866;DHT22;10593;48.398;10.698;2022-10-17T06:27:21;15.20;55.50
20866;DHT22;10593;48.398;10.698;2022-10-17T06:29:47;15.30;55.60
20866;DHT22;10593;48.398;10.698;2022-10-17T06:32:13;15.40;55.50
20866;DHT22;10593;48.398;10.698;2022-10-17T06:34:39;15.60;55.50
20866;DHT22;10593;48.398;10.698;2022-10-17T06:37:04;15.70;55.40
20866;DHT22;10593;48.398;10.698;2022-10-17T06:39:30;15.90;55.40
20866;DHT22;10593;48.398;10.698;2022-10-17T06:42:02;16.10;55.60
20866;DHT22;10593;48.398;10.698;2022-10-17T06:44:28;16.30;55.50
20866;DHT22;10593;48.398;10.698;2022-10-17T06:46:58;16.60;55.90
20866;DHT22;10593;48.398;10.698;2022-10-17T06:49:25;17.00;55.90
20866;DHT22;10593;48.398;10.698;2022-10-17T06:51:52;17.30;55.60
20866;DHT22;10593;48.398;10.698;2022-10-17T06:54:18;17.60;55.00
20866;DHT22;10593;48.398;10.698;2022-10-17T06:56:44;17.90;54.50
20866;DHT22;10593;48.398;10.698;2022-10-17T06:59:10;18.30;53.80
20866;DHT22;10593;48.398;10.698;2022-10-17T07:01:36;18.60;53.30
20866;DHT22;10593;48.398;10.698;2022-10-17T07:04:02;18.90;53.00
20866;DHT22;10593;48.398;10.698;2022-10-17T07:06:27;19.20;52.60
20866;DHT22;10593;48.398;10.698;2022-10-17T07:08:53;19.50;52.20
20866;DHT22;10593;48.398;10.698;2022-10-17T07:11:21;19.70;51.60
20866;DHT22;10593;48.398;10.698;2022-10-17T07:13:47;20.00;51.10
20866;DHT22;10593;48.398;10.698;2022-10-17T07:16:14;20.20;50.60
20866;DHT22;10593;48.398;10.698;2022-10-17T07:18:41;20.30;50.20
20866;DHT22;10593;48.398;10.698;2022-10-17T07:21:11;20.50;49.80
20866;DHT22;10593;48.398;10.698;2022-10-17T07:23:36;20.50;49.80
20866;DHT22;10593;48.398;10.698;2022-10-17T07:26:05;20.50;49.50
20866;DHT22;10593;48.398;10.698;2022-10-17T07:28:38;20.40;49.70
20866;DHT22;10593;48.398;10.698;2022-10-17T07:31:08;20.30;49.70
20866;DHT22;10593;48.398;10.698;2022-10-17T07:33:34;20.10;49.80
20866;DHT22;10593;48.398;10.698;2022-10-17T07:36:01;20.00;50.30
20866;DHT22;10593;48.398;10.698;2022-10-17T07:38:28;19.80;50.70
20866;DHT22;10593;48.398;10.698;2022-10-17T07:40:55;19.60;50.70
20866;DHT22;10593;48.398;10.698;2022-10-17T07:43:23;19.40;51.40
20866;DHT22;10593;48.398;10.698;2022-10-17T07:45:50;19.30;52.00
20866;DHT22;10593;48.398;10.698;2022-10-17T07:48:16;19.10;52.10
20866;DHT22;10593;48.398;10.698;2022-10-17T07:50:42;18.90;52.70
20866;DHT22;10593;48.398;10.698;2022-10-17T07:53:08;18.80;53.10
20866;DHT22;10593;48.398;10.698;2022-10-17T07:55:36;18.70;53.30
20866;DHT22;10593;48.398;10.698;2022-10-17T07:58:02;18.60;53.70
20866;DHT22;10593;48.398;10.698;2022-10-17T08:00:28;18.50;53.90
20866;DHT22;10593;48.398;10.698;2022-10-17T08:02:53;18.40;54.30
20866;DHT22;10593;48.398;10.698;2022-10-17T08:05:19;18.40;54.70
20866;DHT22;10593;48.398;10.698;2022-10-17T08:07:45;18.30;54.80
20866;DHT22;10593;48.398;10.698;2022-10-17T08:10:12;18.20;55.10
20866;DHT22;10593;48.398;10.698;2022-10-17T08:12:38;18.20;55.70
20866;DHT22;10593;48.398;10.698;2022-10-17T08:15:05;18.10;56.00
20866;DHT22;10593;48.398;10.698;2022-10-17T08:17:34;18.00;56.20
20866;DHT22;10593;48.398;10.698;2022-10-17T08:20:00;18.00;56.40
20866;DHT22;10593;48.398;10.698;2022-10-17T08:22:26;18.00;56.50
20866;DHT22;10593;48.398;10.698;2022-10-17T08:24:52;17.90;56.60
20866;DHT22;10593;48.398;10.698;2022-10-17T08:27:18;17.90;56.90
20866;DHT22;10593;48.398;10.698;2022-10-17T08:29:48;17.90;57.30
20866;DHT22;10593;48.398;10.698;2022-10-17T08:32:21;17.90;57.50
20866;DHT22;10593;48.398;10.698;2022-10-17T08:34:50;17.80;57.80
20866;DHT22;10593;48.398;10.698;2022-10-17T08:37:20;17.80;57.90
20866;DHT22;10593;48.398;10.698;2022-10-17T08:39:47;17.80;58.30
20866;DHT22;10593;48.398;10.698;2022-10-17T08:42:30;17.80;58.30
20866;DHT22;10593;48.398;10.698;2022-10-17T08:45:51;17.80;59.20
20866;DHT22;10593;48.398;10.698;2022-10-17T08:48:26;17.80;58.90
20866;DHT22;10593;48.398;10.698;2022-10-17T08:51:02;17.80;59.10
20866;DHT22;10593;48.398;10.698;2022-10-17T08:53:40;17.80;59.40
20866;DHT22;10593;48.398;10.698;2022-10-17T08:56:23;17.80;59.40
20866;DHT22;10593;48.398;10.698;2022-10-17T08:58:50;17.80;59.40
20866;DHT22;10593;48.398;10.698;2022-10-17T09:06:38;17.90;60.00
20866;DHT22;10593;48.398;10.698;2022-10-17T09:11:50;18.00;60.80
20866;DHT22;10593;48.398;10.698;2022-10-17T09:14:48;18.00;60.90
20866;DHT22;10593;48.398;10.698;2022-10-17T09:20:23;18.10;60.60
20866;DHT22;10593;48.398;10.698;2022-10-17T09:23:16;18.10;60.40
20866;DHT22;10593;48.398;10.698;2022-10-17T09:25:53;18.20;61.00
20866;DHT22;10593;48.398;10.698;2022-10-17T09:28:35;18.20;61.20
20866;DHT22;10593;48.398;10.698;2022-10-17T09:31:13;18.20;60.80
20866;DHT22;10593;48.398;10.698;2022-10-17T09:33:45;18.30;61.10
20866;DHT22;10593;48.398;10.698;2022-10-17T09:36:16;18.30;60.90
20866;DHT22;10593;48.398;10.698;2022-10-17T09:38:54;18.30;60.70
20866;DHT22;10593;48.398;10.698;2022-10-17T09:41:37;18.40;60.80
20866;DHT22;10593;48.398;10.698;2022-10-17T09:44:33;18.40;60.50
20866;DHT22;10593;48.398;10.698;2022-10-17T09:49:44;18.50;60.30
20866;DHT22;10593;48.398;10.698;2022-10-17T09:52:15;18.60;60.20
20866;DHT22;10593;48.398;10.698;2022-10-17T09:55:01;18.60;60.10
20866;DHT22;10593;48.398;10.698;2022-10-17T09:58:00;18.60;60.00
20866;DHT22;10593;48.398;10.698;2022-10-17T10:00:34;18.70;59.60
20866;DHT22;10593;48.398;10.698;2022-10-17T10:03:22;18.70;59.60
20866;DHT22;10593;48.398;10.698;2022-10-17T10:06:05;18.80;59.50
20866;DHT22;10593;48.398;10.698;2022-10-17T10:08:48;18.80;59.70
20866;DHT22;10593;48.398;10.698;2022-10-17T10:11:17;18.90;59.20
20866;DHT22;10593;48.398;10.698;2022-10-17T10:13:46;18.90;59.00
20866;DHT22;10593;48.398;10.698;2022-10-17T10:18:43;18.90;58.70
20866;DHT22;10593;48.398;10.698;2022-10-17T10:21:21;19.00;58.40
20866;DHT22;10593;48.398;10.698;2022-10-17T10:26:46;19.10;58.50
20866;DHT22;10593;48.398;10.698;2022-10-17T10:29:33;19.10;58.30
20866;DHT22;10593;48.398;10.698;2022-10-17T10:34:55;19.20;58.50
20866;DHT22;10593;48.398;10.698;2022-10-17T10:37:38;19.30;58.70
20866;DHT22;10593;48.398;10.698;2022-10-17T10:40:21;19.30;58.70
20866;DHT22;10593;48.398;10.698;2022-10-17T10:42:51;19.30;58.50
20866;DHT22;10593;48.398;10.698;2022-10-17T10:45:21;19.40;58.80
20866;DHT22;10593;48.398;10.698;2022-10-17T10:47:54;19.40;58.40
20866;DHT22;10593;48.398;10.698;2022-10-17T10:50:37;19.50;58.30
20866;DHT22;10593;48.398;10.698;2022-10-17T10:59:40;19.60;58.00
20866;DHT22;10593;48.398;10.698;2022-10-17T11:02:29;19.60;57.90
20866;DHT22;10593;48.398;10.698;2022-10-17T11:05:10;19.60;58.10
20866;DHT22;10593;48.398;10.698;2022-10-17T11:10:59;19.70;58.50
20866;DHT22;10593;48.398;10.698;2022-10-17T11:13:37;19.70;58.50
20866;DHT22;10593;48.398;10.698;2022-10-17T11:16:17;19.80;58.50
20866;DHT22;10593;48.398;10.698;2022-10-17T11:18:58;19.80;58.70
20866;DHT22;10593;48.398;10.698;2022-10-17T11:21:46;19.80;58.60
20866;DHT22;10593;48.398;10.698;2022-10-17T11:24:23;19.90;59.00
20866;DHT22;10593;48.398;10.698;2022-10-17T11:26:59;19.90;59.20
20866;DHT22;10593;48.398;10.698;2022-10-17T11:29:30;20.00;59.20
20866;DHT22;10593;48.398;10.698;2022-10-17T11:34:47;20.00;59.30
20866;DHT22;10593;48.398;10.698;2022-10-17T11:37:20;20.10;59.30
20866;DHT22;10593;48.398;10.698;2022-10-17T11:40:02;20.10;59.30
20866;DHT22;10593;48.398;10.698;2022-10-17T11:42:57;20.20;59.30
20866;DHT22;10593;48.398;10.698;2022-10-17T11:45:28;20.20;59.40
20866;DHT22;10593;48.398;10.698;2022-10-17T11:48:06;20.20;59.20
20866;DHT22;10593;48.398;10.698;2022-10-17T11:50:44;20.30;59.10
20866;DHT22;10593;48.398;10.698;2022-10-17T11:53:26;20.30;59.10
20866;DHT22;10593;48.398;10.698;2022-10-17T11:55:57;20.40;58.90
20866;DHT22;10593;48.398;10.698;2022-10-17T11:58:39;20.40;58.90
20866;DHT22;10593;48.398;10.698;2022-10-17T12:01:39;20.40;59.00
20866;DHT22;10593;48.398;10.698;2022-10-17T12:04:30;20.50;59.00
20866;DHT22;10593;48.398;10.698;2022-10-17T12:07:32;20.50;58.80
20866;DHT22;10593;48.398;10.698;2022-10-17T12:10:32;20.50;58.70
20866;DHT22;10593;48.398;10.698;2022-10-17T12:15:55;20.60;58.90
20866;DHT22;10593;48.398;10.698;2022-10-17T12:18:25;20.60;58.90
20866;DHT22;10593;48.398;10.698;2022-10-17T12:20:58;20.60;59.00
20866;DHT22;10593;48.398;10.698;2022-10-17T12:23:29;20.60;58.70
20866;DHT22;10593;48.398;10.698;2022-10-17T12:25:59;20.70;58.60
20866;DHT22;10593;48.398;10.698;2022-10-17T12:28:40;20.70;58.50
20866;DHT22;10593;48.398;10.698;2022-10-17T12:49:39;21.00;57.90
20866;DHT22;10593;48.398;10.698;2022-10-17T12:54:52;21.10;57.90
20866;DHT22;10593;48.398;10.698;2022-10-17T12:57:40;21.10;58.20
20866;DHT22;10593;48.398;10.698;2022-10-17T13:03:14;21.30;58.30
20866;DHT22;10593;48.398;10.698;2022-10-17T13:06:00;21.20;57.90
20866;DHT22;10593;48.398;10.698;2022-10-17T13:11:00;21.40;58.20
20866;DHT22;10593;48.398;10.698;2022-10-17T13:16:35;21.40;58.20
20866;DHT22;10593;48.398;10.698;2022-10-17T13:19:26;21.40;57.80
20866;DHT22;10593;48.398;10.698;2022-10-17T13:21:56;21.40;57.50
20866;DHT22;10593;48.398;10.698;2022-10-17T13:24:32;21.40;57.60
20866;DHT22;10593;48.398;10.698;2022-10-17T13:27:00;21.40;57.60
20866;DHT22;10593;48.398;10.698;2022-10-17T13:29:27;21.40;57.80
20866;DHT22;10593;48.398;10.698;2022-10-17T13:31:58;21.40;57.50
20866;DHT22;10593;48.398;10.698;2022-10-17T13:34:30;21.50;57.50
20866;DHT22;10593;48.398;10.698;2022-10-17T13:37:00;21.50;57.50
20866;DHT22;10593;48.398;10.698;2022-10-17T13:39:33;21.50;57.20
20866;DHT22;10593;48.398;10.698;2022-10-17T13:42:03;21.50;56.50
20866;DHT22;10593;48.398;10.698;2022-10-17T13:44:33;21.50;56.80
20866;DHT22;10593;48.398;10.698;2022-10-17T13:47:00;21.60;56.80
20866;DHT22;10593;48.398;10.698;2022-10-17T13:49:40;21.60;56.80
20866;DHT22;10593;48.398;10.698;2022-10-17T13:52:16;21.60;56.00
20866;DHT22;10593;48.398;10.698;2022-10-17T13:54:47;21.60;55.50
20866;DHT22;10593;48.398;10.698;2022-10-17T13:57:21;21.60;55.20
20866;DHT22;10593;48.398;10.698;2022-10-17T13:59:56;21.60;55.60
20866;DHT22;10593;48.398;10.698;2022-10-17T14:02:26;21.60;54.90
20866;DHT22;10593;48.398;10.698;2022-10-17T14:05:09;21.70;55.20
20866;DHT22;10593;48.398;10.698;2022-10-17T14:10:42;21.70;55.40
20866;DHT22;10593;48.398;10.698;2022-10-17T14:13:23;21.70;55.40
20866;DHT22;10593;48.398;10.698;2022-10-17T14:15:53;21.70;55.40
20866;DHT22;10593;48.398;10.698;2022-10-17T14:18:24;21.80;55.30
20866;DHT22;10593;48.398;10.698;2022-10-17T14:20:55;21.70;55.20
20866;DHT22;10593;48.398;10.698;2022-10-17T14:23:36;21.80;55.50
20866;DHT22;10593;48.398;10.698;2022-10-17T14:26:16;21.80;55.10
20866;DHT22;10593;48.398;10.698;2022-10-17T14:29:19;21.80;55.10
20866;DHT22;10593;48.398;10.698;2022-10-17T14:32:12;21.80;55.30
20866;DHT22;10593;48.398;10.698;2022-10-17T14:34:39;21.90;55.50
20866;DHT22;10593;48.398;10.698;2022-10-17T14:40:23;21.90;55.30
20866;DHT22;10593;48.398;10.698;2022-10-17T14:42:52;22.00;55.30
20866;DHT22;10593;48.398;10.698;2022-10-17T14:45:29;21.90;55.30
20866;DHT22;10593;48.398;10.698;2022-10-17T14:48:11;22.00;55.50
20866;DHT22;10593;48.398;10.698;2022-10-17T14:50:39;22.00;56.00
20866;DHT22;10593;48.398;10.698;2022-10-17T14:55:35;22.00;56.30
20866;DHT22;10593;48.398;10.698;2022-10-17T14:58:24;22.10;56.50
20866;DHT22;10593;48.398;10.698;2022-10-17T15:00:52;22.10;56.80
20866;DHT22;10593;48.398;10.698;2022-10-17T15:03:18;22.10;56.70
20866;DHT22;10593;48.398;10.698;2022-10-17T15:05:45;22.10;56.80
20866;DHT22;10593;48.398;10.698;2022-10-17T15:08:16;22.10;56.70
20866;DHT22;10593;48.398;10.698;2022-10-17T15:10:45;22.10;56.60
20866;DHT22;10593;48.398;10.698;2022-10-17T15:13:12;22.10;56.70
20866;DHT22;10593;48.398;10.698;2022-10-17T15:15:39;22.10;56.70
20866;DHT22;10593;48.398;10.698;2022-10-17T15:18:05;22.10;56.70
20866;DHT22;10593;48.398;10.698;2022-10-17T15:20:34;22.10;56.90
20866;DHT22;10593;48.398;10.698;2022-10-17T15:23:01;22.10;56.90
20866;DHT22;10593;48.398;10.698;2022-10-17T15:25:28;22.10;56.90
20866;DHT22;10593;48.398;10.698;2022-10-17T15:27:56;22.10;56.90
20866;DHT22;10593;48.398;10.698;2022-10-17T15:30:27;22.10;56.90
20866;DHT22;10593;48.398;10.698;2022-10-17T15:32:58;22.10;57.00
20866;DHT22;10593;48.398;10.698;2022-10-17T15:35:25;22.00;57.00
20866;DHT22;10593;48.398;10.698;2022-10-17T15:37:51;22.10;57.30
20866;DHT22;10593;48.398;10.698;2022-10-17T15:40:26;22.10;57.70
20866;DHT22;10593;48.398;10.698;2022-10-17T15:42:54;22.00;58.10
20866;DHT22;10593;48.398;10.698;2022-10-17T15:45:21;22.00;58.50
20866;DHT22;10593;48.398;10.698;2022-10-17T15:47:55;22.00;58.70
20866;DHT22;10593;48.398;10.698;2022-10-17T15:50:26;22.00;59.00
20866;DHT22;10593;48.398;10.698;2022-10-17T15:52:55;22.00;59.10
20866;DHT22;10593;48.398;10.698;2022-10-17T15:55:20;22.00;59.30
20866;DHT22;10593;48.398;10.698;2022-10-17T15:57:47;21.90;59.30
20866;DHT22;10593;48.398;10.698;2022-10-17T16:00:22;21.90;59.70
20866;DHT22;10593;48.398;10.698;2022-10-17T16:02:49;21.90;59.70
20866;DHT22;10593;48.398;10.698;2022-10-17T16:05:18;21.90;59.60
20866;DHT22;10593;48.398;10.698;2022-10-17T16:07:50;21.80;59.70
20866;DHT22;10593;48.398;10.698;2022-10-17T16:10:17;21.80;59.70
20866;DHT22;10593;48.398;10.698;2022-10-17T16:12:43;21.70;59.70
20866;DHT22;10593;48.398;10.698;2022-10-17T16:15:12;21.60;59.80
20866;DHT22;10593;48.398;10.698;2022-10-17T16:17:40;21.60;60.10
20866;DHT22;10593;48.398;10.698;2022-10-17T16:20:08;21.60;60.20
20866;DHT22;10593;48.398;10.698;2022-10-17T16:22:35;21.50;60.40
20866;DHT22;10593;48.398;10.698;2022-10-17T16:25:06;21.50;60.40
20866;DHT22;10593;48.398;10.698;2022-10-17T16:27:44;21.40;60.40
20866;DHT22;10593;48.398;10.698;2022-10-17T16:30:12;21.40;60.20
20866;DHT22;10593;48.398;10.698;2022-10-17T16:32:37;21.30;60.30
20866;DHT22;10593;48.398;10.698;2022-10-17T16:35:04;21.30;60.40
20866;DHT22;10593;48.398;10.698;2022-10-17T16:37:31;21.30;60.40
20866;DHT22;10593;48.398;10.698;2022-10-17T16:39:57;21.20;60.40
20866;DHT22;10593;48.398;10.698;2022-10-17T16:42:22;21.20;61.20
20866;DHT22;10593;48.398;10.698;2022-10-17T16:44:50;21.10;60.40
20866;DHT22;10593;48.398;10.698;2022-10-17T16:47:17;21.00;60.40
20866;DHT22;10593;48.398;10.698;2022-10-17T16:49:43;21.00;60.60
20866;DHT22;10593;48.398;10.698;2022-10-17T16:52:09;21.00;60.60
20866;DHT22;10593;48.398;10.698;2022-10-17T16:54:35;21.00;60.70
20866;DHT22;10593;48.398;10.698;2022-10-17T16:57:02;20.90;60.80
20866;DHT22;10593;48.398;10.698;2022-10-17T16:59:28;20.90;61.00
20866;DHT22;10593;48.398;10.698;2022-10-17T17:01:54;20.80;60.90
20866;DHT22;10593;48.398;10.698;2022-10-17T17:04:20;20.80;61.00
20866;DHT22;10593;48.398;10.698;2022-10-17T17:06:45;20.80;61.00
20866;DHT22;10593;48.398;10.698;2022-10-17T17:09:11;20.70;60.90
20866;DHT22;10593;48.398;10.698;2022-10-17T17:11:38;20.70;61.00
20866;DHT22;10593;48.398;10.698;2022-10-17T17:14:04;20.70;61.00
20866;DHT22;10593;48.398;10.698;2022-10-17T17:16:32;20.60;61.00
20866;DHT22;10593;48.398;10.698;2022-10-17T17:19:04;20.60;61.00
20866;DHT22;10593;48.398;10.698;2022-10-17T17:21:33;20.60;61.00
20866;DHT22;10593;48.398;10.698;2022-10-17T17:24:00;20.50;60.90